Aeroporto :
LOGIN :

Iscrizione | Disclaimer

   EN    FR    IT 

 










Sommario :    VFR   VFR Marginale   IFR   IFR Intensivo   IFR Molto Intensivo
Visibilità : 
Base nubi : 
>= 8 km
>= 3000ft
5 / 8 km
1000 / 3000 ft
1500m / 5 km
500 / 1000 ft
800 / 1500m
200 / 500 ft
< 800m
< 200 ft
Simboli :   Temporali  Nebbia  Neve Forte  Precipitazioni Forti  Vento > 20 kt
SIGMETs :   Varie  Temporali  Ghiacco  Turbolenza  Onda orograficha  Ceneri Vulcaniche






- Altitudine del aeroporto : 24 ft
- Codice IATA : FAO


LPFR - Faro

ULTIMO METAR :
  • 250000Z 30005KT CAVOK 13/08 Q1025

METARs OBSOLETI :
  • 242330Z 28007KT CAVOK 12/09 Q1025
  • 242300Z 27005KT CAVOK 12/09 Q1025
  • 242230Z VRB03KT CAVOK 13/09 Q1025
  • 242200Z 31008KT CAVOK 14/10 Q1025
  • 242130Z 28006KT CAVOK 14/11 Q1025

TAF TAF LPFR
Valido dal 25 a 00 ore il 26 a 00 ore UTC


242300Z 2500/2524 30007KT CAVOK
BECMG 2510/2512 26010KT
BECMG 2518/2520 31008KT
TEMPO 2518/2522 9999 SCT030



MetMap, La meteo Aeronautica in un colpo d'occhio ! - Copyright ORBIFLY Dicembre 2007 - Disclaimer

ORBIFLY MET'MAP TEAM :

Programmazione e sviluppo : Alexandra Zaïnal
Concezione : Baudouin d'Aumeries
Aiuto per la programmazione : Marc-Olivier Méhu
Supporto tecnico e logistico : Manuel Goepfert
Aiuto per la traduzione : Arnaldo La Scala

Contatto : metmap@orbifly.com




FONTI E CREDITI :

   NOAA